sensor_id;sensor_type;location;lat;lon;timestamp;P1;durP1;ratioP1;P2;durP2;ratioP2
12224;SDS011;6175;50.956;11.064;2024-01-15T00:01:41;15.40;;;9.43;;
12224;SDS011;6175;50.956;11.064;2024-01-15T00:04:10;15.90;;;10.00;;
12224;SDS011;6175;50.956;11.064;2024-01-15T00:06:37;14.73;;;9.80;;
12224;SDS011;6175;50.956;11.064;2024-01-15T00:09:04;16.17;;;9.87;;
12224;SDS011;6175;50.956;11.064;2024-01-15T00:11:32;15.10;;;9.87;;
12224;SDS011;6175;50.956;11.064;2024-01-15T00:13:59;14.87;;;10.03;;
12224;SDS011;6175;50.956;11.064;2024-01-15T00:16:26;16.27;;;9.70;;
12224;SDS011;6175;50.956;11.064;2024-01-15T00:18:53;14.50;;;9.27;;
12224;SDS011;6175;50.956;11.064;2024-01-15T00:21:21;14.00;;;9.40;;
12224;SDS011;6175;50.956;11.064;2024-01-15T00:23:48;16.17;;;10.10;;
12224;SDS011;6175;50.956;11.064;2024-01-15T00:26:16;14.80;;;9.03;;
12224;SDS011;6175;50.956;11.064;2024-01-15T00:28:43;17.50;;;10.07;;
12224;SDS011;6175;50.956;11.064;2024-01-15T00:31:10;15.57;;;10.00;;
12224;SDS011;6175;50.956;11.064;2024-01-15T00:33:37;16.10;;;10.27;;
12224;SDS011;6175;50.956;11.064;2024-01-15T00:36:04;13.70;;;9.73;;
12224;SDS011;6175;50.956;11.064;2024-01-15T00:38:32;16.50;;;10.30;;
12224;SDS011;6175;50.956;11.064;2024-01-15T00:41:00;16.17;;;9.97;;
12224;SDS011;6175;50.956;11.064;2024-01-15T00:43:27;13.57;;;9.67;;
12224;SDS011;6175;50.956;11.064;2024-01-15T00:45:55;15.87;;;10.30;;
12224;SDS011;6175;50.956;11.064;2024-01-15T00:48:22;16.40;;;10.17;;
12224;SDS011;6175;50.956;11.064;2024-01-15T00:50:49;15.00;;;9.60;;
12224;SDS011;6175;50.956;11.064;2024-01-15T00:53:16;15.53;;;9.80;;
12224;SDS011;6175;50.956;11.064;2024-01-15T00:55:45;13.07;;;8.47;;
12224;SDS011;6175;50.956;11.064;2024-01-15T00:58:12;14.57;;;8.80;;
12224;SDS011;6175;50.956;11.064;2024-01-15T01:00:39;15.83;;;10.10;;
12224;SDS011;6175;50.956;11.064;2024-01-15T01:03:06;14.17;;;9.43;;
12224;SDS011;6175;50.956;11.064;2024-01-15T01:05:33;13.37;;;9.20;;
12224;SDS011;6175;50.956;11.064;2024-01-15T01:08:00;13.83;;;9.33;;
12224;SDS011;6175;50.956;11.064;2024-01-15T01:10:27;14.97;;;9.83;;
12224;SDS011;6175;50.956;11.064;2024-01-15T01:12:56;13.80;;;9.17;;
12224;SDS011;6175;50.956;11.064;2024-01-15T01:15:23;11.73;;;8.77;;
12224;SDS011;6175;50.956;11.064;2024-01-15T01:17:50;14.97;;;9.57;;
12224;SDS011;6175;50.956;11.064;2024-01-15T01:20:17;13.60;;;8.53;;
12224;SDS011;6175;50.956;11.064;2024-01-15T01:22:45;15.60;;;9.67;;
12224;SDS011;6175;50.956;11.064;2024-01-15T01:25:12;12.03;;;7.97;;
12224;SDS011;6175;50.956;11.064;2024-01-15T01:27:39;14.57;;;8.57;;
12224;SDS011;6175;50.956;11.064;2024-01-15T01:30:08;12.53;;;9.17;;
12224;SDS011;6175;50.956;11.064;2024-01-15T01:32:35;13.70;;;9.10;;
12224;SDS011;6175;50.956;11.064;2024-01-15T01:35:03;14.90;;;8.93;;
12224;SDS011;6175;50.956;11.064;2024-01-15T01:37:30;12.33;;;8.53;;
12224;SDS011;6175;50.956;11.064;2024-01-15T01:39:58;12.50;;;8.33;;
12224;SDS011;6175;50.956;11.064;2024-01-15T01:42:25;13.77;;;8.40;;
12224;SDS011;6175;50.956;11.064;2024-01-15T01:44:52;13.60;;;8.03;;
12224;SDS011;6175;50.956;11.064;2024-01-15T01:47:21;12.43;;;7.90;;
12224;SDS011;6175;50.956;11.064;2024-01-15T01:49:48;13.20;;;8.73;;
12224;SDS011;6175;50.956;11.064;2024-01-15T01:52:15;12.37;;;8.73;;
12224;SDS011;6175;50.956;11.064;2024-01-15T01:54:42;15.20;;;9.37;;
12224;SDS011;6175;50.956;11.064;2024-01-15T01:57:09;14.83;;;9.77;;
12224;SDS011;6175;50.956;11.064;2024-01-15T01:59:38;14.30;;;9.10;;
12224;SDS011;6175;50.956;11.064;2024-01-15T02:02:05;13.90;;;8.87;;
12224;SDS011;6175;50.956;11.064;2024-01-15T02:04:33;14.90;;;9.77;;
12224;SDS011;6175;50.956;11.064;2024-01-15T02:07:02;17.53;;;9.73;;
12224;SDS011;6175;50.956;11.064;2024-01-15T02:09:29;14.93;;;9.43;;
12224;SDS011;6175;50.956;11.064;2024-01-15T02:11:57;16.07;;;9.63;;
12224;SDS011;6175;50.956;11.064;2024-01-15T02:14:24;14.30;;;9.07;;
12224;SDS011;6175;50.956;11.064;2024-01-15T02:16:51;16.10;;;9.83;;
12224;SDS011;6175;50.956;11.064;2024-01-15T02:19:18;13.93;;;8.87;;
12224;SDS011;6175;50.956;11.064;2024-01-15T02:21:46;14.30;;;8.93;;
12224;SDS011;6175;50.956;11.064;2024-01-15T02:24:15;15.27;;;8.87;;
12224;SDS011;6175;50.956;11.064;2024-01-15T02:26:42;13.97;;;9.17;;
12224;SDS011;6175;50.956;11.064;2024-01-15T02:29:09;13.17;;;8.47;;
12224;SDS011;6175;50.956;11.064;2024-01-15T02:31:37;13.47;;;8.60;;
12224;SDS011;6175;50.956;11.064;2024-01-15T02:34:04;13.27;;;8.63;;
12224;SDS011;6175;50.956;11.064;2024-01-15T02:36:31;13.70;;;8.57;;
12224;SDS011;6175;50.956;11.064;2024-01-15T02:38:58;12.80;;;8.73;;
12224;SDS011;6175;50.956;11.064;2024-01-15T02:41:27;12.70;;;8.20;;
12224;SDS011;6175;50.956;11.064;2024-01-15T02:43:54;11.93;;;7.73;;
12224;SDS011;6175;50.956;11.064;2024-01-15T02:46:21;13.40;;;8.67;;
12224;SDS011;6175;50.956;11.064;2024-01-15T02:48:48;13.93;;;8.73;;
12224;SDS011;6175;50.956;11.064;2024-01-15T02:51:15;13.83;;;7.97;;
12224;SDS011;6175;50.956;11.064;2024-01-15T02:53:42;13.93;;;8.30;;
12224;SDS011;6175;50.956;11.064;2024-01-15T02:56:09;12.73;;;8.67;;
12224;SDS011;6175;50.956;11.064;2024-01-15T02:58:38;13.90;;;8.23;;
12224;SDS011;6175;50.956;11.064;2024-01-15T03:01:05;12.80;;;8.67;;
12224;SDS011;6175;50.956;11.064;2024-01-15T03:03:32;11.00;;;7.63;;
12224;SDS011;6175;50.956;11.064;2024-01-15T03:05:59;14.17;;;7.97;;
12224;SDS011;6175;50.956;11.064;2024-01-15T03:08:27;12.33;;;7.93;;
12224;SDS011;6175;50.956;11.064;2024-01-15T03:10:55;11.10;;;7.40;;
12224;SDS011;6175;50.956;11.064;2024-01-15T03:13:22;10.93;;;7.73;;
12224;SDS011;6175;50.956;11.064;2024-01-15T03:15:50;12.10;;;7.93;;
12224;SDS011;6175;50.956;11.064;2024-01-15T03:18:17;12.40;;;7.80;;
12224;SDS011;6175;50.956;11.064;2024-01-15T03:20:45;10.40;;;7.33;;
12224;SDS011;6175;50.956;11.064;2024-01-15T03:23:12;11.73;;;7.80;;
12224;SDS011;6175;50.956;11.064;2024-01-15T03:25:39;11.47;;;7.77;;
12224;SDS011;6175;50.956;11.064;2024-01-15T03:28:06;11.60;;;8.03;;
12224;SDS011;6175;50.956;11.064;2024-01-15T03:30:33;9.93;;;6.90;;
12224;SDS011;6175;50.956;11.064;2024-01-15T03:33:02;10.70;;;7.43;;
12224;SDS011;6175;50.956;11.064;2024-01-15T03:35:29;10.17;;;6.67;;
12224;SDS011;6175;50.956;11.064;2024-01-15T03:37:56;10.07;;;7.30;;
12224;SDS011;6175;50.956;11.064;2024-01-15T03:40:23;9.77;;;6.90;;
12224;SDS011;6175;50.956;11.064;2024-01-15T03:42:50;10.93;;;7.30;;
12224;SDS011;6175;50.956;11.064;2024-01-15T03:45:17;11.23;;;7.53;;
12224;SDS011;6175;50.956;11.064;2024-01-15T03:47:44;10.17;;;7.13;;
12224;SDS011;6175;50.956;11.064;2024-01-15T03:50:13;11.17;;;7.07;;
12224;SDS011;6175;50.956;11.064;2024-01-15T03:52:40;10.77;;;6.97;;
12224;SDS011;6175;50.956;11.064;2024-01-15T03:55:07;11.70;;;7.17;;
12224;SDS011;6175;50.956;11.064;2024-01-15T03:57:34;10.17;;;7.40;;
12224;SDS011;6175;50.956;11.064;2024-01-15T04:00:02;9.93;;;6.73;;
12224;SDS011;6175;50.956;11.064;2024-01-15T04:02:29;9.37;;;7.17;;
12224;SDS011;6175;50.956;11.064;2024-01-15T04:04:56;10.60;;;6.90;;
12224;SDS011;6175;50.956;11.064;2024-01-15T04:07:25;10.97;;;7.20;;
12224;SDS011;6175;50.956;11.064;2024-01-15T04:09:52;11.23;;;7.13;;
12224;SDS011;6175;50.956;11.064;2024-01-15T04:12:19;9.57;;;6.07;;
12224;SDS011;6175;50.956;11.064;2024-01-15T04:14:46;7.67;;;5.70;;
12224;SDS011;6175;50.956;11.064;2024-01-15T04:17:13;9.23;;;6.20;;
12224;SDS011;6175;50.956;11.064;2024-01-15T04:19:40;9.00;;;6.73;;
12224;SDS011;6175;50.956;11.064;2024-01-15T04:22:09;9.03;;;6.70;;
12224;SDS011;6175;50.956;11.064;2024-01-15T04:24:37;8.20;;;5.90;;
12224;SDS011;6175;50.956;11.064;2024-01-15T04:27:04;7.53;;;6.00;;
12224;SDS011;6175;50.956;11.064;2024-01-15T04:29:31;8.00;;;6.13;;
12224;SDS011;6175;50.956;11.064;2024-01-15T04:31:58;9.23;;;6.57;;
12224;SDS011;6175;50.956;11.064;2024-01-15T04:34:25;8.60;;;5.97;;
12224;SDS011;6175;50.956;11.064;2024-01-15T04:36:52;7.83;;;6.40;;
12224;SDS011;6175;50.956;11.064;2024-01-15T04:39:20;10.13;;;6.70;;
12224;SDS011;6175;50.956;11.064;2024-01-15T04:41:48;9.43;;;6.50;;
12224;SDS011;6175;50.956;11.064;2024-01-15T04:44:15;8.57;;;6.10;;
12224;SDS011;6175;50.956;11.064;2024-01-15T04:46:42;9.13;;;6.30;;
12224;SDS011;6175;50.956;11.064;2024-01-15T04:49:10;7.10;;;5.80;;
12224;SDS011;6175;50.956;11.064;2024-01-15T04:51:37;10.57;;;6.70;;
12224;SDS011;6175;50.956;11.064;2024-01-15T04:54:04;9.87;;;6.30;;
12224;SDS011;6175;50.956;11.064;2024-01-15T04:56:31;8.17;;;5.77;;
12224;SDS011;6175;50.956;11.064;2024-01-15T04:58:59;9.07;;;6.23;;
12224;SDS011;6175;50.956;11.064;2024-01-15T05:01:29;8.93;;;6.10;;
12224;SDS011;6175;50.956;11.064;2024-01-15T05:03:56;8.60;;;6.47;;
12224;SDS011;6175;50.956;11.064;2024-01-15T05:06:23;7.80;;;6.00;;
12224;SDS011;6175;50.956;11.064;2024-01-15T05:08:50;7.53;;;6.50;;
12224;SDS011;6175;50.956;11.064;2024-01-15T05:11:17;8.80;;;6.33;;
12224;SDS011;6175;50.956;11.064;2024-01-15T05:13:45;9.97;;;6.70;;
12224;SDS011;6175;50.956;11.064;2024-01-15T05:16:13;8.00;;;6.43;;
12224;SDS011;6175;50.956;11.064;2024-01-15T05:18:40;8.50;;;6.43;;
12224;SDS011;6175;50.956;11.064;2024-01-15T05:21:08;8.10;;;5.77;;
12224;SDS011;6175;50.956;11.064;2024-01-15T05:23:35;8.97;;;6.10;;
12224;SDS011;6175;50.956;11.064;2024-01-15T05:26:02;9.57;;;6.70;;
12224;SDS011;6175;50.956;11.064;2024-01-15T05:28:29;8.70;;;6.63;;
12224;SDS011;6175;50.956;11.064;2024-01-15T05:30:56;10.40;;;7.43;;
12224;SDS011;6175;50.956;11.064;2024-01-15T05:33:25;9.73;;;6.90;;
12224;SDS011;6175;50.956;11.064;2024-01-15T05:35:52;8.33;;;5.87;;
12224;SDS011;6175;50.956;11.064;2024-01-15T05:38:19;10.30;;;7.30;;
12224;SDS011;6175;50.956;11.064;2024-01-15T05:40:46;9.73;;;7.07;;
12224;SDS011;6175;50.956;11.064;2024-01-15T05:43:13;9.90;;;6.97;;
12224;SDS011;6175;50.956;11.064;2024-01-15T05:45:42;9.10;;;6.43;;
12224;SDS011;6175;50.956;11.064;2024-01-15T05:48:09;9.73;;;6.63;;
12224;SDS011;6175;50.956;11.064;2024-01-15T05:50:38;10.40;;;6.90;;
12224;SDS011;6175;50.956;11.064;2024-01-15T05:53:05;9.73;;;7.00;;
12224;SDS011;6175;50.956;11.064;2024-01-15T05:55:32;9.13;;;6.83;;
12224;SDS011;6175;50.956;11.064;2024-01-15T05:57:59;11.33;;;7.30;;
12224;SDS011;6175;50.956;11.064;2024-01-15T06:00:27;8.83;;;7.00;;
12224;SDS011;6175;50.956;11.064;2024-01-15T06:02:54;9.53;;;7.47;;
12224;SDS011;6175;50.956;11.064;2024-01-15T06:05:21;9.33;;;7.10;;
12224;SDS011;6175;50.956;11.064;2024-01-15T06:07:49;9.40;;;6.60;;
12224;SDS011;6175;50.956;11.064;2024-01-15T06:10:17;8.23;;;6.33;;
12224;SDS011;6175;50.956;11.064;2024-01-15T06:12:44;11.07;;;7.03;;
12224;SDS011;6175;50.956;11.064;2024-01-15T06:15:11;9.67;;;7.13;;
12224;SDS011;6175;50.956;11.064;2024-01-15T06:17:38;8.63;;;6.20;;
12224;SDS011;6175;50.956;11.064;2024-01-15T06:20:06;8.77;;;6.47;;
12224;SDS011;6175;50.956;11.064;2024-01-15T06:22:34;9.77;;;6.80;;
12224;SDS011;6175;50.956;11.064;2024-01-15T06:25:07;9.97;;;6.63;;
12224;SDS011;6175;50.956;11.064;2024-01-15T06:27:34;8.77;;;6.13;;
12224;SDS011;6175;50.956;11.064;2024-01-15T06:30:01;7.70;;;5.90;;
12224;SDS011;6175;50.956;11.064;2024-01-15T06:32:28;9.23;;;6.20;;
12224;SDS011;6175;50.956;11.064;2024-01-15T06:34:55;10.23;;;6.23;;
12224;SDS011;6175;50.956;11.064;2024-01-15T06:37:22;8.33;;;6.47;;
12224;SDS011;6175;50.956;11.064;2024-01-15T06:39:49;10.83;;;6.47;;
12224;SDS011;6175;50.956;11.064;2024-01-15T06:42:18;11.40;;;6.87;;
12224;SDS011;6175;50.956;11.064;2024-01-15T06:44:47;9.83;;;6.23;;
12224;SDS011;6175;50.956;11.064;2024-01-15T06:47:14;8.63;;;6.03;;
12224;SDS011;6175;50.956;11.064;2024-01-15T06:49:42;8.40;;;5.90;;
12224;SDS011;6175;50.956;11.064;2024-01-15T06:52:09;9.90;;;6.77;;
12224;SDS011;6175;50.956;11.064;2024-01-15T06:54:37;10.50;;;5.63;;
12224;SDS011;6175;50.956;11.064;2024-01-15T06:57:05;8.87;;;5.93;;
12224;SDS011;6175;50.956;11.064;2024-01-15T06:59:33;8.67;;;5.97;;
12224;SDS011;6175;50.956;11.064;2024-01-15T07:02:01;9.77;;;5.97;;
12224;SDS011;6175;50.956;11.064;2024-01-15T07:04:28;9.27;;;6.07;;
12224;SDS011;6175;50.956;11.064;2024-01-15T07:06:55;8.13;;;5.50;;
12224;SDS011;6175;50.956;11.064;2024-01-15T07:09:22;9.60;;;6.27;;
12224;SDS011;6175;50.956;11.064;2024-01-15T07:11:50;8.27;;;5.73;;
12224;SDS011;6175;50.956;11.064;2024-01-15T07:14:17;7.73;;;5.33;;
12224;SDS011;6175;50.956;11.064;2024-01-15T07:16:46;11.40;;;6.13;;
12224;SDS011;6175;50.956;11.064;2024-01-15T07:19:13;7.73;;;5.93;;
12224;SDS011;6175;50.956;11.064;2024-01-15T07:21:40;10.23;;;5.43;;
12224;SDS011;6175;50.956;11.064;2024-01-15T07:24:08;7.83;;;5.67;;
12224;SDS011;6175;50.956;11.064;2024-01-15T07:26:35;9.47;;;6.13;;
12224;SDS011;6175;50.956;11.064;2024-01-15T07:29:02;9.37;;;5.97;;
12224;SDS011;6175;50.956;11.064;2024-01-15T07:31:29;10.57;;;6.20;;
12224;SDS011;6175;50.956;11.064;2024-01-15T07:33:59;8.77;;;5.73;;
12224;SDS011;6175;50.956;11.064;2024-01-15T07:36:26;8.23;;;5.63;;
12224;SDS011;6175;50.956;11.064;2024-01-15T07:38:53;8.53;;;5.73;;
12224;SDS011;6175;50.956;11.064;2024-01-15T07:41:20;9.03;;;6.50;;
12224;SDS011;6175;50.956;11.064;2024-01-15T07:43:48;10.03;;;6.40;;
12224;SDS011;6175;50.956;11.064;2024-01-15T07:46:15;8.47;;;6.43;;
12224;SDS011;6175;50.956;11.064;2024-01-15T07:48:42;10.60;;;6.73;;
12224;SDS011;6175;50.956;11.064;2024-01-15T07:51:11;11.03;;;6.50;;
12224;SDS011;6175;50.956;11.064;2024-01-15T07:53:38;9.50;;;7.00;;
12224;SDS011;6175;50.956;11.064;2024-01-15T07:56:05;9.07;;;6.17;;
12224;SDS011;6175;50.956;11.064;2024-01-15T07:58:32;9.70;;;6.20;;
12224;SDS011;6175;50.956;11.064;2024-01-15T08:00:59;8.77;;;6.40;;
12224;SDS011;6175;50.956;11.064;2024-01-15T08:03:26;10.47;;;6.33;;
12224;SDS011;6175;50.956;11.064;2024-01-15T08:05:53;10.50;;;6.67;;
12224;SDS011;6175;50.956;11.064;2024-01-15T08:08:24;9.87;;;6.30;;
12224;SDS011;6175;50.956;11.064;2024-01-15T08:10:51;9.13;;;6.40;;
12224;SDS011;6175;50.956;11.064;2024-01-15T08:13:18;11.80;;;6.83;;
12224;SDS011;6175;50.956;11.064;2024-01-15T08:15:45;8.87;;;6.17;;
12224;SDS011;6175;50.956;11.064;2024-01-15T08:18:13;10.40;;;6.77;;
12224;SDS011;6175;50.956;11.064;2024-01-15T08:20:40;10.27;;;6.47;;
12224;SDS011;6175;50.956;11.064;2024-01-15T08:23:07;10.80;;;6.43;;
12224;SDS011;6175;50.956;11.064;2024-01-15T08:25:36;8.80;;;6.23;;
12224;SDS011;6175;50.956;11.064;2024-01-15T08:28:03;8.60;;;5.73;;
12224;SDS011;6175;50.956;11.064;2024-01-15T08:30:30;8.60;;;6.23;;
12224;SDS011;6175;50.956;11.064;2024-01-15T08:32:57;10.97;;;6.63;;
12224;SDS011;6175;50.956;11.064;2024-01-15T08:35:25;9.03;;;5.77;;
12224;SDS011;6175;50.956;11.064;2024-01-15T08:37:52;11.27;;;6.70;;
12224;SDS011;6175;50.956;11.064;2024-01-15T08:40:19;8.63;;;5.87;;
12224;SDS011;6175;50.956;11.064;2024-01-15T08:42:48;8.40;;;6.20;;
12224;SDS011;6175;50.956;11.064;2024-01-15T08:45:15;10.53;;;6.23;;
12224;SDS011;6175;50.956;11.064;2024-01-15T08:47:42;9.90;;;5.63;;
12224;SDS011;6175;50.956;11.064;2024-01-15T08:50:09;9.67;;;6.67;;
12224;SDS011;6175;50.956;11.064;2024-01-15T08:52:36;9.93;;;6.60;;
12224;SDS011;6175;50.956;11.064;2024-01-15T08:55:03;8.87;;;6.43;;
12224;SDS011;6175;50.956;11.064;2024-01-15T08:57:32;10.37;;;7.13;;
12224;SDS011;6175;50.956;11.064;2024-01-15T09:00:00;8.10;;;6.40;;
12224;SDS011;6175;50.956;11.064;2024-01-15T09:02:28;8.07;;;6.03;;
12224;SDS011;6175;50.956;11.064;2024-01-15T09:04:55;10.80;;;7.10;;
12224;SDS011;6175;50.956;11.064;2024-01-15T09:07:23;10.73;;;6.80;;
12224;SDS011;6175;50.956;11.064;2024-01-15T09:09:51;7.87;;;6.20;;
12224;SDS011;6175;50.956;11.064;2024-01-15T09:12:19;7.93;;;5.87;;
12224;SDS011;6175;50.956;11.064;2024-01-15T09:14:47;9.67;;;6.37;;
12224;SDS011;6175;50.956;11.064;2024-01-15T09:17:16;9.70;;;6.10;;
12224;SDS011;6175;50.956;11.064;2024-01-15T09:19:44;10.67;;;6.67;;
12224;SDS011;6175;50.956;11.064;2024-01-15T09:22:12;9.37;;;6.37;;
12224;SDS011;6175;50.956;11.064;2024-01-15T09:24:40;9.70;;;6.13;;
12224;SDS011;6175;50.956;11.064;2024-01-15T09:27:07;8.80;;;5.97;;
12224;SDS011;6175;50.956;11.064;2024-01-15T09:29:34;10.73;;;6.43;;
12224;SDS011;6175;50.956;11.064;2024-01-15T09:32:02;9.47;;;5.47;;
12224;SDS011;6175;50.956;11.064;2024-01-15T09:34:31;7.63;;;6.27;;
12224;SDS011;6175;50.956;11.064;2024-01-15T09:36:58;11.87;;;6.43;;
12224;SDS011;6175;50.956;11.064;2024-01-15T09:39:25;10.80;;;5.97;;
12224;SDS011;6175;50.956;11.064;2024-01-15T09:41:53;8.70;;;5.87;;
12224;SDS011;6175;50.956;11.064;2024-01-15T09:44:20;9.13;;;6.00;;
12224;SDS011;6175;50.956;11.064;2024-01-15T09:46:47;9.27;;;5.87;;
12224;SDS011;6175;50.956;11.064;2024-01-15T09:49:15;10.93;;;6.50;;
12224;SDS011;6175;50.956;11.064;2024-01-15T09:51:44;10.67;;;5.93;;
12224;SDS011;6175;50.956;11.064;2024-01-15T09:54:11;7.67;;;6.20;;
12224;SDS011;6175;50.956;11.064;2024-01-15T09:56:42;9.27;;;6.07;;
12224;SDS011;6175;50.956;11.064;2024-01-15T09:59:11;10.27;;;6.07;;
12224;SDS011;6175;50.956;11.064;2024-01-15T10:01:40;10.37;;;5.83;;
12224;SDS011;6175;50.956;11.064;2024-01-15T10:04:08;9.30;;;6.67;;
12224;SDS011;6175;50.956;11.064;2024-01-15T10:06:35;8.57;;;6.07;;
12224;SDS011;6175;50.956;11.064;2024-01-15T10:09:06;7.83;;;5.70;;
12224;SDS011;6175;50.956;11.064;2024-01-15T10:11:33;9.43;;;6.50;;
12224;SDS011;6175;50.956;11.064;2024-01-15T10:14:01;10.97;;;6.33;;
12224;SDS011;6175;50.956;11.064;2024-01-15T10:16:28;11.20;;;6.70;;
12224;SDS011;6175;50.956;11.064;2024-01-15T10:18:55;11.33;;;6.30;;
12224;SDS011;6175;50.956;11.064;2024-01-15T10:21:22;9.40;;;6.63;;
12224;SDS011;6175;50.956;11.064;2024-01-15T10:23:51;9.57;;;6.43;;
12224;SDS011;6175;50.956;11.064;2024-01-15T10:26:20;10.53;;;6.53;;
12224;SDS011;6175;50.956;11.064;2024-01-15T10:28:51;10.83;;;6.60;;
12224;SDS011;6175;50.956;11.064;2024-01-15T10:31:18;10.47;;;6.60;;
12224;SDS011;6175;50.956;11.064;2024-01-15T10:33:46;10.33;;;6.87;;
12224;SDS011;6175;50.956;11.064;2024-01-15T10:36:13;7.80;;;5.67;;
12224;SDS011;6175;50.956;11.064;2024-01-15T10:38:41;8.90;;;5.90;;
12224;SDS011;6175;50.956;11.064;2024-01-15T10:41:08;8.03;;;5.50;;
12224;SDS011;6175;50.956;11.064;2024-01-15T10:43:37;10.70;;;6.13;;
12224;SDS011;6175;50.956;11.064;2024-01-15T10:46:06;8.00;;;5.50;;
12224;SDS011;6175;50.956;11.064;2024-01-15T10:48:33;8.80;;;5.90;;
12224;SDS011;6175;50.956;11.064;2024-01-15T10:51:01;8.43;;;5.50;;
12224;SDS011;6175;50.956;11.064;2024-01-15T10:53:35;8.65;;;5.38;;
12224;SDS011;6175;50.956;11.064;2024-01-15T10:56:03;8.20;;;5.10;;
12224;SDS011;6175;50.956;11.064;2024-01-15T10:58:31;6.27;;;4.57;;
12224;SDS011;6175;50.956;11.064;2024-01-15T11:01:03;7.47;;;4.87;;
12224;SDS011;6175;50.956;11.064;2024-01-15T11:03:31;7.23;;;5.00;;
12224;SDS011;6175;50.956;11.064;2024-01-15T11:05:58;7.87;;;5.60;;
12224;SDS011;6175;50.956;11.064;2024-01-15T11:08:26;8.30;;;4.63;;
12224;SDS011;6175;50.956;11.064;2024-01-15T11:10:53;6.03;;;4.67;;
12224;SDS011;6175;50.956;11.064;2024-01-15T11:13:20;6.47;;;4.33;;
12224;SDS011;6175;50.956;11.064;2024-01-15T11:15:57;7.38;;;4.60;;
12224;SDS011;6175;50.956;11.064;2024-01-15T11:18:27;7.80;;;5.40;;
12224;SDS011;6175;50.956;11.064;2024-01-15T11:23:46;6.73;;;4.50;;
12224;SDS011;6175;50.956;11.064;2024-01-15T11:26:28;8.07;;;5.20;;
12224;SDS011;6175;50.956;11.064;2024-01-15T11:28:56;6.43;;;4.77;;
12224;SDS011;6175;50.956;11.064;2024-01-15T11:31:26;8.30;;;5.00;;
12224;SDS011;6175;50.956;11.064;2024-01-15T11:33:55;8.43;;;5.50;;
12224;SDS011;6175;50.956;11.064;2024-01-15T11:36:32;7.53;;;5.03;;
12224;SDS011;6175;50.956;11.064;2024-01-15T11:39:41;6.63;;;4.43;;
12224;SDS011;6175;50.956;11.064;2024-01-15T11:42:09;7.03;;;4.70;;
12224;SDS011;6175;50.956;11.064;2024-01-15T11:44:37;6.40;;;4.22;;
12224;SDS011;6175;50.956;11.064;2024-01-15T11:47:04;5.97;;;4.17;;
12224;SDS011;6175;50.956;11.064;2024-01-15T11:49:36;11.98;;;5.40;;
12224;SDS011;6175;50.956;11.064;2024-01-15T11:52:10;6.00;;;4.07;;
12224;SDS011;6175;50.956;11.064;2024-01-15T11:54:38;6.63;;;4.43;;
12224;SDS011;6175;50.956;11.064;2024-01-15T11:57:11;5.33;;;3.60;;
12224;SDS011;6175;50.956;11.064;2024-01-15T11:59:48;7.20;;;4.50;;
12224;SDS011;6175;50.956;11.064;2024-01-15T12:02:15;5.23;;;4.07;;
12224;SDS011;6175;50.956;11.064;2024-01-15T12:04:42;6.00;;;3.83;;
12224;SDS011;6175;50.956;11.064;2024-01-15T12:07:10;6.18;;;3.88;;
12224;SDS011;6175;50.956;11.064;2024-01-15T12:09:42;5.28;;;3.55;;
12224;SDS011;6175;50.956;11.064;2024-01-15T12:12:10;5.15;;;3.63;;
12224;SDS011;6175;50.956;11.064;2024-01-15T12:14:42;7.40;;;3.90;;
12224;SDS011;6175;50.956;11.064;2024-01-15T12:17:09;5.30;;;3.93;;
12224;SDS011;6175;50.956;11.064;2024-01-15T12:19:37;4.60;;;4.00;;
12224;SDS011;6175;50.956;11.064;2024-01-15T12:22:04;6.35;;;4.20;;
12224;SDS011;6175;50.956;11.064;2024-01-15T12:24:33;4.18;;;3.78;;
12224;SDS011;6175;50.956;11.064;2024-01-15T12:27:00;5.40;;;3.92;;
12224;SDS011;6175;50.956;11.064;2024-01-15T12:29:27;4.88;;;3.65;;
12224;SDS011;6175;50.956;11.064;2024-01-15T12:31:55;5.78;;;4.20;;
12224;SDS011;6175;50.956;11.064;2024-01-15T12:34:22;5.55;;;4.03;;
12224;SDS011;6175;50.956;11.064;2024-01-15T12:36:49;6.90;;;4.45;;
12224;SDS011;6175;50.956;11.064;2024-01-15T12:39:16;6.35;;;5.25;;
12224;SDS011;6175;50.956;11.064;2024-01-15T12:41:45;7.53;;;4.47;;
12224;SDS011;6175;50.956;11.064;2024-01-15T12:44:12;5.70;;;4.10;;
12224;SDS011;6175;50.956;11.064;2024-01-15T12:46:39;7.18;;;4.88;;
12224;SDS011;6175;50.956;11.064;2024-01-15T12:49:07;6.47;;;4.40;;
12224;SDS011;6175;50.956;11.064;2024-01-15T12:51:34;5.97;;;4.57;;
12224;SDS011;6175;50.956;11.064;2024-01-15T12:54:01;6.50;;;4.83;;
12224;SDS011;6175;50.956;11.064;2024-01-15T12:56:28;6.53;;;4.83;;
12224;SDS011;6175;50.956;11.064;2024-01-15T12:58:57;6.50;;;4.53;;
12224;SDS011;6175;50.956;11.064;2024-01-15T13:01:24;5.88;;;4.68;;
12224;SDS011;6175;50.956;11.064;2024-01-15T13:03:51;13.03;;;5.50;;
12224;SDS011;6175;50.956;11.064;2024-01-15T13:06:18;6.73;;;4.60;;
12224;SDS011;6175;50.956;11.064;2024-01-15T13:08:45;7.63;;;4.85;;
12224;SDS011;6175;50.956;11.064;2024-01-15T13:11:13;6.63;;;4.57;;
12224;SDS011;6175;50.956;11.064;2024-01-15T13:13:40;6.95;;;4.78;;
12224;SDS011;6175;50.956;11.064;2024-01-15T13:16:09;7.07;;;5.05;;
12224;SDS011;6175;50.956;11.064;2024-01-15T13:18:36;7.18;;;5.18;;
12224;SDS011;6175;50.956;11.064;2024-01-15T13:21:04;7.10;;;4.97;;
12224;SDS011;6175;50.956;11.064;2024-01-15T13:23:31;6.18;;;4.75;;
12224;SDS011;6175;50.956;11.064;2024-01-15T13:25:58;6.73;;;4.60;;
12224;SDS011;6175;50.956;11.064;2024-01-15T13:28:25;7.60;;;5.25;;
12224;SDS011;6175;50.956;11.064;2024-01-15T13:30:52;7.22;;;5.38;;
12224;SDS011;6175;50.956;11.064;2024-01-15T13:33:21;7.05;;;5.10;;
12224;SDS011;6175;50.956;11.064;2024-01-15T13:35:48;9.10;;;5.70;;
12224;SDS011;6175;50.956;11.064;2024-01-15T13:38:15;6.80;;;4.95;;
12224;SDS011;6175;50.956;11.064;2024-01-15T13:40:43;6.40;;;4.55;;
12224;SDS011;6175;50.956;11.064;2024-01-15T13:43:10;6.93;;;5.00;;
12224;SDS011;6175;50.956;11.064;2024-01-15T13:45:39;6.53;;;4.38;;
12224;SDS011;6175;50.956;11.064;2024-01-15T13:48:06;6.47;;;4.90;;
12224;SDS011;6175;50.956;11.064;2024-01-15T13:50:35;5.63;;;4.40;;
12224;SDS011;6175;50.956;11.064;2024-01-15T13:53:02;5.45;;;4.57;;
12224;SDS011;6175;50.956;11.064;2024-01-15T13:55:30;6.20;;;4.40;;
12224;SDS011;6175;50.956;11.064;2024-01-15T13:57:57;6.85;;;4.20;;
12224;SDS011;6175;50.956;11.064;2024-01-15T14:00:24;7.50;;;4.38;;
12224;SDS011;6175;50.956;11.064;2024-01-15T14:02:51;6.72;;;4.15;;
12224;SDS011;6175;50.956;11.064;2024-01-15T14:05:18;7.35;;;4.43;;
12224;SDS011;6175;50.956;11.064;2024-01-15T14:07:47;7.88;;;4.70;;
12224;SDS011;6175;50.956;11.064;2024-01-15T14:10:14;6.30;;;4.45;;
12224;SDS011;6175;50.956;11.064;2024-01-15T14:12:41;7.32;;;5.07;;
12224;SDS011;6175;50.956;11.064;2024-01-15T14:15:08;6.55;;;4.47;;
12224;SDS011;6175;50.956;11.064;2024-01-15T14:17:35;8.07;;;5.10;;
12224;SDS011;6175;50.956;11.064;2024-01-15T14:20:03;6.82;;;4.70;;
12224;SDS011;6175;50.956;11.064;2024-01-15T14:22:31;9.97;;;5.53;;
12224;SDS011;6175;50.956;11.064;2024-01-15T14:24:59;6.90;;;5.00;;
12224;SDS011;6175;50.956;11.064;2024-01-15T14:27:26;7.10;;;5.15;;
12224;SDS011;6175;50.956;11.064;2024-01-15T14:29:54;6.57;;;4.68;;
12224;SDS011;6175;50.956;11.064;2024-01-15T14:32:21;7.28;;;5.18;;
12224;SDS011;6175;50.956;11.064;2024-01-15T14:34:48;6.95;;;4.78;;
12224;SDS011;6175;50.956;11.064;2024-01-15T14:37:15;7.05;;;4.45;;
12224;SDS011;6175;50.956;11.064;2024-01-15T14:39:42;6.57;;;4.85;;
12224;SDS011;6175;50.956;11.064;2024-01-15T14:42:11;10.90;;;4.65;;
12224;SDS011;6175;50.956;11.064;2024-01-15T14:44:38;7.15;;;5.05;;
12224;SDS011;6175;50.956;11.064;2024-01-15T14:47:06;8.32;;;4.30;;
12224;SDS011;6175;50.956;11.064;2024-01-15T14:49:33;5.97;;;4.57;;